createdAt,value
2023-05-14T00:01:13.224Z,10.77
2023-05-14T00:03:41.676Z,14.68
2023-05-14T00:06:10.904Z,11.23
2023-05-14T00:08:39.179Z,10.93
2023-05-14T00:11:08.994Z,11.35
2023-05-14T00:13:37.205Z,13.68
2023-05-14T00:16:07.317Z,16.38
2023-05-14T00:18:35.509Z,12.77
2023-05-14T00:21:03.630Z,9.75
2023-05-14T00:23:31.748Z,15.40
2023-05-14T00:25:59.844Z,14.52
2023-05-14T00:28:27.992Z,11.20
2023-05-14T00:30:57.401Z,18.70
2023-05-14T00:33:26.959Z,14.10
2023-05-14T00:35:55.062Z,11.48
2023-05-14T00:38:24.296Z,15.38
2023-05-14T00:40:52.395Z,17.00
2023-05-14T00:43:20.891Z,13.80
2023-05-14T00:45:49.432Z,16.35
2023-05-14T00:48:17.610Z,20.58
2023-05-14T00:50:47.259Z,13.85
2023-05-14T00:53:15.592Z,21.50
2023-05-14T00:55:44.260Z,15.40
2023-05-14T00:58:13.261Z,19.60
2023-05-14T01:00:42.464Z,13.45
2023-05-14T01:03:10.916Z,13.38
2023-05-14T01:05:45.162Z,14.70
2023-05-14T01:08:22.954Z,13.85
2023-05-14T01:10:52.749Z,17.65
2023-05-14T01:13:27.592Z,19.25
2023-05-14T01:15:58.618Z,15.18
2023-05-14T01:18:27.234Z,16.85
2023-05-14T01:20:55.988Z,10.82
2023-05-14T01:23:25.519Z,15.15
2023-05-14T01:25:53.698Z,14.23
2023-05-14T01:28:25.349Z,15.05
2023-05-14T01:30:59.305Z,22.13
2023-05-14T01:33:29.248Z,13.98
2023-05-14T01:35:58.543Z,14.65
2023-05-14T01:38:30.787Z,18.48
2023-05-14T01:40:59.130Z,12.87
2023-05-14T01:43:27.710Z,19.42
2023-05-14T01:45:56.616Z,11.30
2023-05-14T01:48:24.923Z,17.27
2023-05-14T01:50:53.025Z,26.95
2023-05-14T01:53:21.144Z,15.43
2023-05-14T01:55:50.607Z,12.07
2023-05-14T01:58:18.725Z,13.38
2023-05-14T02:00:46.962Z,16.77
2023-05-14T02:03:15.061Z,17.00
2023-05-14T02:05:43.169Z,17.90
2023-05-14T02:08:11.324Z,13.70
2023-05-14T02:10:39.435Z,11.07
2023-05-14T02:13:09.661Z,15.07
2023-05-14T02:15:37.839Z,15.82
2023-05-14T02:18:06.115Z,16.88
2023-05-14T02:20:34.407Z,15.70
2023-05-14T02:23:02.519Z,16.48
2023-05-14T02:25:30.632Z,17.15
2023-05-14T02:27:58.711Z,14.60
2023-05-14T02:30:28.204Z,19.63
2023-05-14T02:32:56.393Z,13.40
2023-05-14T02:35:24.649Z,14.70
2023-05-14T02:37:52.792Z,11.38
2023-05-14T02:40:21.047Z,10.77
2023-05-14T02:42:49.210Z,13.65
2023-05-14T02:45:17.397Z,10.23
2023-05-14T02:47:46.886Z,13.02
2023-05-14T02:50:15.045Z,12.40
2023-05-14T02:52:43.178Z,16.15
2023-05-14T02:55:11.832Z,16.77
2023-05-14T02:57:39.971Z,10.82
2023-05-14T03:00:09.291Z,13.45
2023-05-14T03:02:37.871Z,11.07
2023-05-14T03:05:09.374Z,14.10
2023-05-14T03:07:37.479Z,16.80
2023-05-14T03:10:06.368Z,13.32
2023-05-14T03:12:34.484Z,13.77
2023-05-14T03:15:02.645Z,13.45
2023-05-14T03:17:30.853Z,15.20
2023-05-14T03:19:59.015Z,14.40
2023-05-14T03:22:28.708Z,15.15
2023-05-14T03:24:57.043Z,12.00
2023-05-14T03:27:25.182Z,15.73
2023-05-14T03:29:53.297Z,11.43
2023-05-14T03:32:21.414Z,17.38
2023-05-14T03:34:49.571Z,19.23
2023-05-14T03:37:17.701Z,15.38
2023-05-14T03:39:47.177Z,17.40
2023-05-14T03:42:15.341Z,16.35
2023-05-14T03:44:43.462Z,12.77
2023-05-14T03:47:11.718Z,15.43
2023-05-14T03:49:40.062Z,16.60
2023-05-14T03:52:08.157Z,15.02
2023-05-14T03:54:36.276Z,12.15
2023-05-14T03:57:06.319Z,13.85
2023-05-14T03:59:34.619Z,13.23
2023-05-14T04:02:02.778Z,22.10
2023-05-14T04:04:30.903Z,12.70
2023-05-14T04:06:59.026Z,15.13
2023-05-14T04:09:27.159Z,17.00
2023-05-14T04:11:55.269Z,13.05
2023-05-14T04:14:24.765Z,14.80
2023-05-14T04:16:52.972Z,17.13
2023-05-14T04:19:21.108Z,12.35
2023-05-14T04:21:49.232Z,17.27
2023-05-14T04:24:18.457Z,14.52
2023-05-14T04:26:46.580Z,13.95
2023-05-14T04:29:14.698Z,11.57
2023-05-14T04:31:44.203Z,12.13
2023-05-14T04:34:12.345Z,11.43
2023-05-14T04:36:40.482Z,14.10
2023-05-14T04:39:09.996Z,10.05
2023-05-14T04:41:38.149Z,20.30
2023-05-14T04:44:06.814Z,17.42
2023-05-14T04:46:35.268Z,12.30
2023-05-14T04:49:04.894Z,14.75
2023-05-14T04:51:33.040Z,17.33
2023-05-14T04:54:01.229Z,16.77
2023-05-14T04:56:29.355Z,11.05
2023-05-14T04:58:57.449Z,11.20
2023-05-14T05:01:25.546Z,13.10
2023-05-14T05:03:53.728Z,12.10
2023-05-14T05:06:23.186Z,13.40
2023-05-14T05:08:51.322Z,13.10
2023-05-14T05:11:19.412Z,11.18
2023-05-14T05:13:47.516Z,10.98
2023-05-14T05:16:15.737Z,9.20
2023-05-14T05:18:44.668Z,11.05
2023-05-14T05:21:12.801Z,14.48
2023-05-14T05:23:42.311Z,11.50
2023-05-14T05:26:10.525Z,23.33
2023-05-14T05:28:38.635Z,12.80
2023-05-14T05:31:07.605Z,8.45
2023-05-14T05:33:37.030Z,7.38
2023-05-14T05:36:05.513Z,8.43
2023-05-14T05:38:33.695Z,10.20
2023-05-14T05:41:03.188Z,10.25
2023-05-14T05:43:31.276Z,8.60
2023-05-14T05:45:59.361Z,9.32
2023-05-14T05:48:27.478Z,9.15
2023-05-14T05:50:55.577Z,8.57
2023-05-14T05:53:23.901Z,7.47
2023-05-14T05:55:52.082Z,8.20
2023-05-14T05:58:21.615Z,13.50
2023-05-14T06:00:49.758Z,9.10
2023-05-14T06:03:17.959Z,6.00
2023-05-14T06:05:46.792Z,5.65
2023-05-14T06:08:15.047Z,10.93
2023-05-14T06:10:43.179Z,14.75
2023-05-14T06:13:11.524Z,5.13
2023-05-14T06:15:41.139Z,10.50
2023-05-14T06:18:09.403Z,6.55
2023-05-14T06:20:37.592Z,9.13
2023-05-14T06:23:06.001Z,8.95
2023-05-14T06:25:34.083Z,12.32
2023-05-14T06:28:02.240Z,13.32
2023-05-14T06:30:30.333Z,16.02
2023-05-14T06:32:59.991Z,7.57
2023-05-14T06:35:28.175Z,9.25
2023-05-14T06:37:56.293Z,8.48
2023-05-14T06:40:25.609Z,7.18
2023-05-14T06:42:54.054Z,13.52
2023-05-14T06:45:22.560Z,11.32
2023-05-14T06:47:50.863Z,7.47
2023-05-14T06:50:20.436Z,9.00
2023-05-14T06:52:48.798Z,8.57
2023-05-14T06:55:16.898Z,11.02
2023-05-14T06:57:45.184Z,10.48
2023-05-14T07:00:14.478Z,15.27
2023-05-14T07:02:42.633Z,13.32
2023-05-14T07:05:11.333Z,11.43
2023-05-14T07:07:41.377Z,9.32
2023-05-14T07:10:09.898Z,9.48
2023-05-14T07:12:38.092Z,10.10
2023-05-14T07:15:07.586Z,7.97
2023-05-14T07:17:35.735Z,11.52
2023-05-14T07:20:03.999Z,9.75
2023-05-14T07:22:32.100Z,10.45
2023-05-14T07:25:02.815Z,8.07
2023-05-14T07:27:30.928Z,7.18
2023-05-14T07:29:59.081Z,6.70
2023-05-14T07:32:27.176Z,6.82
2023-05-14T07:34:56.010Z,8.68
2023-05-14T07:37:25.974Z,7.68
2023-05-14T07:39:54.217Z,6.85
2023-05-14T07:42:35.164Z,8.65
2023-05-14T07:45:04.776Z,7.65
2023-05-14T07:47:33.308Z,9.98
2023-05-14T07:50:01.533Z,5.22
2023-05-14T07:52:29.915Z,5.95
2023-05-14T07:54:58.039Z,8.77
2023-05-14T07:57:27.633Z,6.82
2023-05-14T07:59:55.762Z,6.40
2023-05-14T08:02:23.976Z,6.53
2023-05-14T08:04:52.154Z,7.88
2023-05-14T08:07:20.860Z,3.33
2023-05-14T08:09:48.950Z,8.70
2023-05-14T08:12:17.200Z,2.85
2023-05-14T08:14:46.750Z,4.00
2023-05-14T08:17:15.223Z,4.75
2023-05-14T08:19:43.550Z,2.67
2023-05-14T08:22:11.673Z,2.38
2023-05-14T08:24:40.070Z,3.10
2023-05-14T08:27:08.161Z,8.23
2023-05-14T08:29:36.310Z,2.90
2023-05-14T08:32:15.958Z,3.28
2023-05-14T08:34:50.819Z,6.10
2023-05-14T08:37:18.990Z,3.00
2023-05-14T08:39:47.134Z,3.47
2023-05-14T08:42:15.439Z,3.20
2023-05-14T08:44:48.938Z,2.50
2023-05-14T08:47:20.113Z,8.02
2023-05-14T08:49:49.656Z,3.13
2023-05-14T08:52:19.487Z,2.67
2023-05-14T08:54:48.413Z,2.95
2023-05-14T08:57:16.720Z,5.93
2023-05-14T08:59:44.831Z,4.53
2023-05-14T09:02:15.699Z,4.30
2023-05-14T09:04:45.437Z,5.20
2023-05-14T09:07:13.601Z,2.20
2023-05-14T09:09:42.189Z,2.45
2023-05-14T09:12:11.068Z,1.88
2023-05-14T09:14:39.170Z,2.97
2023-05-14T09:17:07.634Z,3.45
2023-05-14T09:19:36.005Z,2.78
2023-05-14T09:22:13.626Z,4.53
2023-05-14T09:24:41.876Z,2.08
2023-05-14T09:27:12.780Z,4.28
2023-05-14T09:29:40.895Z,2.67
2023-05-14T09:32:10.890Z,2.70
2023-05-14T09:34:39.047Z,1.60
2023-05-14T09:37:10.248Z,2.55
2023-05-14T09:39:40.537Z,6.00
2023-05-14T09:42:08.820Z,2.35
2023-05-14T09:44:38.151Z,2.25
2023-05-14T09:47:06.631Z,3.33
2023-05-14T09:49:35.388Z,4.20
2023-05-14T09:52:04.107Z,3.25
2023-05-14T09:54:33.702Z,1.98
2023-05-14T09:57:01.873Z,1.88
2023-05-14T09:59:30.099Z,2.85
2023-05-14T10:01:59.013Z,1.77
2023-05-14T10:04:27.225Z,2.05
2023-05-14T10:06:56.757Z,2.05
2023-05-14T10:09:29.087Z,1.75
2023-05-14T10:12:00.725Z,2.53
2023-05-14T10:14:36.198Z,1.30
2023-05-14T10:17:04.835Z,2.00
2023-05-14T10:19:35.403Z,1.50
2023-05-14T10:22:06.482Z,1.73
2023-05-14T10:24:35.158Z,2.28
2023-05-14T10:27:04.831Z,1.95
2023-05-14T10:29:34.422Z,2.70
2023-05-14T10:32:06.038Z,2.47
2023-05-14T10:34:40.770Z,2.00
2023-05-14T10:37:10.945Z,3.70
2023-05-14T10:39:59.338Z,2.90
2023-05-14T10:42:29.895Z,2.25
2023-05-14T10:44:59.137Z,2.20
2023-05-14T10:47:28.612Z,2.40
2023-05-14T10:49:57.762Z,3.58
2023-05-14T10:52:26.465Z,2.97
2023-05-14T10:54:56.218Z,2.95
2023-05-14T10:57:26.150Z,2.05
2023-05-14T10:59:57.039Z,2.63
2023-05-14T11:02:26.940Z,1.65
2023-05-14T11:05:00.188Z,3.22
2023-05-14T11:07:32.734Z,1.88
2023-05-14T11:10:05.989Z,2.22
2023-05-14T11:12:35.005Z,2.17
2023-05-14T11:15:06.004Z,2.67
2023-05-14T11:17:34.330Z,2.05
2023-05-14T11:20:02.520Z,3.15
2023-05-14T11:22:30.701Z,2.75
2023-05-14T11:24:58.847Z,2.28
2023-05-14T11:27:27.102Z,2.88
2023-05-14T11:29:55.965Z,7.10
2023-05-14T11:32:25.511Z,1.85
2023-05-14T11:34:53.668Z,2.90
2023-05-14T11:37:21.911Z,1.55
2023-05-14T11:39:50.968Z,4.50
2023-05-14T11:42:19.712Z,2.25
2023-05-14T11:44:49.061Z,1.45
2023-05-14T11:47:18.382Z,1.20
2023-05-14T11:49:48.634Z,2.90
2023-05-14T11:52:19.510Z,2.13
2023-05-14T11:54:47.858Z,1.33
2023-05-14T11:57:18.154Z,2.10
2023-05-14T11:59:46.822Z,1.23
2023-05-14T12:02:16.066Z,2.00
2023-05-14T12:04:50.675Z,3.60
2023-05-14T12:07:19.120Z,1.00
2023-05-14T12:09:49.586Z,1.67
2023-05-14T12:12:20.165Z,1.75
2023-05-14T12:14:48.899Z,1.30
2023-05-14T12:17:18.319Z,1.48
2023-05-14T12:19:48.973Z,3.25
2023-05-14T12:22:19.582Z,2.20
2023-05-14T12:24:54.805Z,3.22
2023-05-14T12:27:24.253Z,2.78
2023-05-14T12:29:53.492Z,4.43
2023-05-14T12:32:21.614Z,2.42
2023-05-14T12:34:51.152Z,4.70
2023-05-14T12:37:19.352Z,1.88
2023-05-14T12:39:47.492Z,1.50
2023-05-14T12:42:16.528Z,4.38
2023-05-14T12:44:44.731Z,2.30
2023-05-14T12:47:12.913Z,2.83
2023-05-14T12:49:41.038Z,1.55
2023-05-14T12:54:43.443Z,3.50
2023-05-14T12:57:11.735Z,2.95
2023-05-14T12:59:39.881Z,1.70
2023-05-14T13:02:08.814Z,2.17
2023-05-14T13:04:37.395Z,3.03
2023-05-14T13:07:05.608Z,3.63
2023-05-14T13:09:35.075Z,2.30
2023-05-14T13:12:03.224Z,3.05
2023-05-14T13:14:31.363Z,1.73
2023-05-14T13:16:59.623Z,1.23
2023-05-14T13:19:27.795Z,1.63
2023-05-14T13:21:55.913Z,1.85
2023-05-14T13:24:25.005Z,1.15
2023-05-14T13:26:54.556Z,4.28
2023-05-14T13:29:22.682Z,1.65
2023-05-14T13:31:50.851Z,1.33
2023-05-14T13:34:18.986Z,2.38
2023-05-14T13:36:48.019Z,1.10
2023-05-14T13:39:16.554Z,3.05
2023-05-14T13:41:45.510Z,4.70
2023-05-14T13:44:15.015Z,6.00
2023-05-14T13:46:43.499Z,1.40
2023-05-14T13:49:11.898Z,1.98
2023-05-14T13:51:40.168Z,3.65
2023-05-14T13:54:08.951Z,1.75
2023-05-14T13:56:37.055Z,3.80
2023-05-14T13:59:05.196Z,6.10
2023-05-14T14:01:34.761Z,1.88
2023-05-14T14:04:03.298Z,1.73
2023-05-14T14:06:33.158Z,2.72
2023-05-14T14:09:01.268Z,1.95
2023-05-14T14:11:29.384Z,4.97
2023-05-14T14:13:57.516Z,2.45
2023-05-14T14:16:25.744Z,1.15
2023-05-14T14:18:55.372Z,1.05
2023-05-14T14:21:23.508Z,1.92
2023-05-14T14:23:51.614Z,1.90
2023-05-14T14:26:19.725Z,1.45
2023-05-14T14:28:47.914Z,3.15
2023-05-14T14:31:16.990Z,1.30
2023-05-14T14:33:45.099Z,1.55
2023-05-14T14:36:14.660Z,6.60
2023-05-14T14:38:42.784Z,2.92
2023-05-14T14:41:10.982Z,2.88
2023-05-14T14:43:40.328Z,1.20
2023-05-14T14:46:09.821Z,4.75
2023-05-14T14:48:38.582Z,3.90
2023-05-14T14:51:07.719Z,1.50
2023-05-14T14:53:38.017Z,4.82
2023-05-14T14:56:06.730Z,1.67
2023-05-14T14:58:34.932Z,1.60
2023-05-14T15:01:03.165Z,2.35
2023-05-14T15:03:31.449Z,1.92
2023-05-14T15:05:59.704Z,2.03
2023-05-14T15:08:28.712Z,1.90
2023-05-14T15:10:59.389Z,7.13
2023-05-14T15:13:28.365Z,6.05
2023-05-14T15:15:56.460Z,3.30
2023-05-14T15:18:24.594Z,4.65
2023-05-14T15:20:53.382Z,1.90
2023-05-14T15:23:21.730Z,3.05
2023-05-14T15:25:50.167Z,2.95
2023-05-14T15:28:19.701Z,5.10
2023-05-14T15:30:49.138Z,2.22
2023-05-14T15:33:19.177Z,3.40
2023-05-14T15:35:47.422Z,4.72
2023-05-14T15:38:15.540Z,4.22
2023-05-14T15:40:43.649Z,4.68
2023-05-14T15:43:11.830Z,13.18
2023-05-14T15:45:41.344Z,1.80
2023-05-14T15:48:09.476Z,2.60
2023-05-14T15:50:38.477Z,1.98
2023-05-14T15:53:06.634Z,2.72
2023-05-14T15:55:34.794Z,3.05
2023-05-14T15:58:03.059Z,2.58
2023-05-14T16:00:31.200Z,2.58
2023-05-14T16:03:00.750Z,4.53
2023-05-14T16:05:28.985Z,1.77
2023-05-14T16:07:57.152Z,2.10
2023-05-14T16:10:25.595Z,2.22
2023-05-14T16:12:54.054Z,3.67
2023-05-14T16:15:22.291Z,3.08
2023-05-14T16:17:50.457Z,3.05
2023-05-14T16:20:20.220Z,3.53
2023-05-14T16:22:48.310Z,2.58
2023-05-14T16:25:18.656Z,3.60
2023-05-14T16:27:46.836Z,8.80
2023-05-14T16:30:15.140Z,3.78
2023-05-14T16:32:43.353Z,4.20
2023-05-14T16:35:11.578Z,4.80
2023-05-14T16:37:41.120Z,4.90
2023-05-14T16:40:11.622Z,9.57
2023-05-14T16:42:39.872Z,6.45
2023-05-14T16:45:09.178Z,5.03
2023-05-14T16:47:37.307Z,4.88
2023-05-14T16:50:05.700Z,3.45
2023-05-14T16:52:34.105Z,3.25
2023-05-14T16:55:03.647Z,2.80
2023-05-14T16:57:32.107Z,4.70
2023-05-14T17:00:00.393Z,3.22
2023-05-14T17:02:28.512Z,3.90
2023-05-14T17:04:56.707Z,3.08
2023-05-14T17:07:24.879Z,3.67
2023-05-14T17:09:53.070Z,4.22
2023-05-14T17:12:23.624Z,3.55
2023-05-14T17:14:51.738Z,3.47
2023-05-14T17:17:19.875Z,3.45
2023-05-14T17:19:48.011Z,2.65
2023-05-14T17:22:16.125Z,4.05
2023-05-14T17:24:44.258Z,6.40
2023-05-14T17:27:13.108Z,2.85
2023-05-14T17:29:44.445Z,2.25
2023-05-14T17:32:12.721Z,5.07
2023-05-14T17:34:40.836Z,2.60
2023-05-14T17:37:08.928Z,3.70
2023-05-14T17:39:37.074Z,5.35
2023-05-14T17:42:06.241Z,2.58
2023-05-14T17:44:34.355Z,4.70
2023-05-14T17:47:04.851Z,5.00
2023-05-14T17:49:33.097Z,3.47
2023-05-14T17:52:01.265Z,5.47
2023-05-14T17:54:29.361Z,2.70
2023-05-14T17:56:57.591Z,3.90
2023-05-14T17:59:25.736Z,5.75
2023-05-14T18:01:53.882Z,5.80
2023-05-14T18:04:23.364Z,4.75
2023-05-14T18:06:51.555Z,2.10
2023-05-14T18:09:19.708Z,3.97
2023-05-14T18:11:47.816Z,2.90
2023-05-14T18:14:17.548Z,3.22
2023-05-14T18:16:47.596Z,2.10
2023-05-14T18:19:15.919Z,1.92
2023-05-14T18:21:48.084Z,2.28
2023-05-14T18:24:16.227Z,3.13
2023-05-14T18:26:44.443Z,2.72
2023-05-14T18:29:12.634Z,2.40
2023-05-14T18:31:40.773Z,7.90
2023-05-14T18:34:08.886Z,5.80
2023-05-14T18:36:37.095Z,2.35
2023-05-14T18:39:06.729Z,2.20
2023-05-14T18:41:34.887Z,2.47
2023-05-14T18:44:03.134Z,6.45
2023-05-14T18:46:31.334Z,2.67
2023-05-14T18:48:59.504Z,6.78
2023-05-14T18:51:27.645Z,5.75
2023-05-14T18:53:55.781Z,4.13
2023-05-14T18:56:25.826Z,7.85
2023-05-14T18:58:54.407Z,5.57
2023-05-14T19:01:25.096Z,3.90
2023-05-14T19:03:54.015Z,11.48
2023-05-14T19:06:22.297Z,4.72
2023-05-14T19:08:52.129Z,3.97
2023-05-14T19:11:20.261Z,3.10
2023-05-14T19:13:49.773Z,6.75
2023-05-14T19:16:17.914Z,6.43
2023-05-14T19:18:46.108Z,3.60
2023-05-14T19:21:14.942Z,3.45
2023-05-14T19:23:43.216Z,2.38
2023-05-14T19:26:11.342Z,6.65
2023-05-14T19:28:39.730Z,3.97
2023-05-14T19:31:10.101Z,7.30
2023-05-14T19:33:38.301Z,4.60
2023-05-14T19:36:06.811Z,8.50
2023-05-14T19:38:35.008Z,4.93
2023-05-14T19:41:03.262Z,5.63
2023-05-14T19:43:31.356Z,6.35
2023-05-14T19:46:01.371Z,5.22
2023-05-14T19:48:31.430Z,5.68
2023-05-14T19:50:59.575Z,3.72
2023-05-14T19:53:29.851Z,5.65
2023-05-14T19:55:58.207Z,2.95
2023-05-14T19:58:26.682Z,3.47
2023-05-14T20:00:57.718Z,2.58
2023-05-14T20:03:26.808Z,4.97
2023-05-14T20:05:56.752Z,3.28
2023-05-14T20:08:25.011Z,6.28
2023-05-14T20:10:53.249Z,5.90
2023-05-14T20:13:23.111Z,4.00
2023-05-14T20:15:52.650Z,4.18
2023-05-14T20:18:20.811Z,10.77
2023-05-14T20:20:49.101Z,2.92
2023-05-14T20:23:18.797Z,10.82
2023-05-14T20:25:47.696Z,13.55
2023-05-14T20:28:15.850Z,6.10
2023-05-14T20:30:44.005Z,13.35
2023-05-14T20:33:13.445Z,5.20
2023-05-14T20:35:43.836Z,11.75
2023-05-14T20:38:12.910Z,12.55
2023-05-14T20:40:42.551Z,7.10
2023-05-14T20:43:10.710Z,5.28
2023-05-14T20:45:39.363Z,4.47
2023-05-14T20:48:10.227Z,5.20
2023-05-14T20:50:38.490Z,10.75
2023-05-14T20:53:06.610Z,7.70
2023-05-14T20:55:34.794Z,6.13
2023-05-14T20:58:04.311Z,6.82
2023-05-14T21:00:32.466Z,7.13
2023-05-14T21:03:00.821Z,5.47
2023-05-14T21:05:29.615Z,4.78
2023-05-14T21:07:57.737Z,3.75
2023-05-14T21:10:26.217Z,6.15
2023-05-14T21:12:54.571Z,4.88
2023-05-14T21:15:24.303Z,2.95
2023-05-14T21:17:52.563Z,5.07
2023-05-14T21:20:20.872Z,3.92
2023-05-14T21:22:48.972Z,4.18
2023-05-14T21:25:17.340Z,2.90
2023-05-14T21:27:45.463Z,9.15
2023-05-14T21:30:14.941Z,6.43
2023-05-14T21:32:44.619Z,3.78
2023-05-14T21:35:12.766Z,3.45
2023-05-14T21:37:41.051Z,8.75
2023-05-14T21:40:12.212Z,2.92
2023-05-14T21:42:40.875Z,3.97
2023-05-14T21:45:09.740Z,3.97
2023-05-14T21:47:38.617Z,4.30
2023-05-14T21:50:09.442Z,7.18
2023-05-14T21:52:38.308Z,3.47
2023-05-14T21:55:07.080Z,8.55
2023-05-14T21:57:35.335Z,33.53
2023-05-14T22:00:04.884Z,6.47
2023-05-14T22:02:33.284Z,10.43
2023-05-14T22:05:01.445Z,8.65
2023-05-14T22:07:31.211Z,6.93
2023-05-14T22:09:59.326Z,5.72
2023-05-14T22:12:27.421Z,7.68
2023-05-14T22:14:55.532Z,5.43
2023-05-14T22:17:23.718Z,4.15
2023-05-14T22:19:51.858Z,6.78
2023-05-14T22:22:19.966Z,9.35
2023-05-14T22:24:49.490Z,4.47
2023-05-14T22:27:17.639Z,4.57
2023-05-14T22:29:45.776Z,9.00
2023-05-14T22:32:13.915Z,5.35
2023-05-14T22:34:42.021Z,5.88
2023-05-14T22:37:10.155Z,10.80
2023-05-14T22:39:38.278Z,10.07
2023-05-14T22:42:08.042Z,4.70
2023-05-14T22:44:36.642Z,3.92
2023-05-14T22:47:05.224Z,5.90
2023-05-14T22:49:33.572Z,4.13
2023-05-14T22:52:03.222Z,4.20
2023-05-14T22:54:31.358Z,9.10
2023-05-14T22:56:59.561Z,7.05
2023-05-14T22:59:29.061Z,5.03
2023-05-14T23:01:57.249Z,5.55
2023-05-14T23:04:25.561Z,7.28
2023-05-14T23:06:53.704Z,6.72
2023-05-14T23:09:21.800Z,4.97
2023-05-14T23:11:49.888Z,5.55
2023-05-14T23:14:18.800Z,8.73
2023-05-14T23:16:48.279Z,9.20
2023-05-14T23:19:16.548Z,5.13
2023-05-14T23:21:44.901Z,4.43
2023-05-14T23:24:16.070Z,8.10
2023-05-14T23:26:44.276Z,6.28
2023-05-14T23:29:12.379Z,6.93
2023-05-14T23:31:41.130Z,5.45
2023-05-14T23:34:10.714Z,8.32
2023-05-14T23:36:39.737Z,5.93
2023-05-14T23:39:07.895Z,10.68
2023-05-14T23:41:36.362Z,5.18
2023-05-14T23:44:04.658Z,7.15
2023-05-14T23:46:32.803Z,6.93
2023-05-14T23:49:01.131Z,7.53
2023-05-14T23:51:30.686Z,6.72
2023-05-14T23:53:59.281Z,8.63
2023-05-14T23:56:29.111Z,7.00
2023-05-14T23:58:57.369Z,5.60
